createdAt,value
2019-05-30T00:01:04.223Z,23.43
2019-05-30T00:03:33.906Z,23.26
2019-05-30T00:06:04.581Z,23.55
2019-05-30T00:08:34.450Z,22.84
2019-05-30T00:11:04.799Z,22.57
2019-05-30T00:13:34.539Z,22.36
2019-05-30T00:16:05.650Z,22.41
2019-05-30T00:18:35.499Z,22.22
2019-05-30T00:21:05.151Z,22.37
2019-05-30T00:23:34.753Z,21.80
2019-05-30T00:26:04.392Z,22.24
2019-05-30T00:28:34.096Z,22.20
2019-05-30T00:31:04.717Z,22.29
2019-05-30T00:33:34.405Z,22.32
2019-05-30T00:36:04.085Z,22.20
2019-05-30T00:38:33.666Z,22.27
2019-05-30T00:41:04.214Z,22.33
2019-05-30T00:43:33.871Z,22.61
2019-05-30T00:46:04.194Z,22.53
2019-05-30T00:48:33.968Z,22.38
2019-05-30T00:51:04.637Z,22.34
2019-05-30T00:53:34.410Z,22.53
2019-05-30T00:56:04.786Z,22.16
2019-05-30T00:58:34.561Z,22.60
2019-05-30T01:01:05.156Z,22.60
2019-05-30T01:03:34.811Z,22.47
2019-05-30T01:06:05.009Z,22.52
2019-05-30T01:08:34.706Z,22.56
2019-05-30T01:11:05.321Z,22.58
2019-05-30T01:13:34.909Z,22.52
2019-05-30T01:16:05.495Z,22.41
2019-05-30T01:18:35.238Z,22.39
2019-05-30T01:21:05.408Z,22.41
2019-05-30T01:23:36.833Z,22.25
2019-05-30T01:26:07.646Z,22.14
2019-05-30T01:28:37.328Z,22.08
2019-05-30T01:31:10.164Z,22.07
2019-05-30T01:33:38.348Z,22.04
2019-05-30T01:36:08.179Z,22.08
2019-05-30T01:38:37.786Z,22.08
2019-05-30T01:41:08.054Z,22.09
2019-05-30T01:43:37.797Z,22.13
2019-05-30T01:46:08.369Z,22.15
2019-05-30T01:48:38.034Z,22.05
2019-05-30T01:51:08.663Z,22.15
2019-05-30T01:53:38.366Z,22.21
2019-05-30T01:56:08.940Z,22.19
2019-05-30T01:58:38.705Z,22.35
2019-05-30T02:01:23.752Z,22.34
2019-05-30T02:03:39.791Z,22.34
2019-05-30T02:06:09.480Z,22.39
2019-05-30T02:08:39.140Z,22.39
2019-05-30T02:11:09.567Z,22.34
2019-05-30T02:13:39.228Z,22.32
2019-05-30T02:16:09.950Z,22.24
2019-05-30T02:18:39.796Z,22.25
2019-05-30T02:21:10.026Z,22.09
2019-05-30T02:23:39.775Z,21.43
2019-05-30T02:26:10.589Z,22.10
2019-05-30T02:28:40.315Z,22.02
2019-05-30T02:31:12.091Z,22.04
2019-05-30T02:33:41.338Z,21.99
2019-05-30T02:36:12.523Z,21.98
2019-05-30T02:38:42.423Z,22.02
2019-05-30T02:41:12.660Z,22.11
2019-05-30T02:43:42.566Z,22.14
2019-05-30T02:46:12.610Z,22.00
2019-05-30T02:48:58.349Z,22.05
2019-05-30T02:51:13.732Z,22.04
2019-05-30T02:53:43.372Z,21.96
2019-05-30T02:56:13.009Z,22.06
2019-05-30T02:58:42.612Z,22.03
2019-05-30T03:01:14.562Z,22.05
2019-05-30T03:03:43.624Z,22.03
2019-05-30T03:06:14.258Z,22.10
2019-05-30T03:08:44.073Z,21.92
2019-05-30T03:11:15.575Z,21.85
2019-05-30T03:13:45.354Z,21.85
2019-05-30T03:16:14.995Z,21.77
2019-05-30T03:18:44.621Z,21.93
2019-05-30T03:21:15.631Z,21.83
2019-05-30T03:23:45.650Z,21.93
2019-05-30T03:26:16.189Z,21.93
2019-05-30T03:28:46.251Z,22.01
2019-05-30T03:31:27.809Z,22.10
2019-05-30T03:33:50.078Z,22.03
2019-05-30T03:36:29.855Z,22.10
2019-05-30T03:38:51.228Z,22.18
2019-05-30T03:41:21.094Z,22.12
2019-05-30T03:43:50.825Z,22.19
2019-05-30T03:46:24.584Z,22.23
2019-05-30T03:48:55.980Z,22.19
2019-05-30T03:51:26.914Z,22.26
2019-05-30T03:53:56.875Z,22.19
2019-05-30T03:56:37.669Z,22.35
2019-05-30T03:59:20.856Z,22.40
2019-05-30T04:02:06.226Z,22.45
2019-05-30T04:04:40.423Z,22.37
2019-05-30T04:07:15.783Z,22.52
2019-05-30T04:09:47.645Z,22.51
2019-05-30T04:12:54.052Z,22.61
2019-05-30T04:15:32.083Z,22.50
2019-05-30T04:18:01.792Z,22.65
2019-05-30T04:20:31.578Z,22.66
2019-05-30T04:23:01.172Z,22.74
2019-05-30T04:25:30.913Z,22.87
2019-05-30T04:28:00.535Z,23.12
2019-05-30T04:30:30.117Z,23.06
2019-05-30T04:33:16.038Z,23.01
2019-05-30T04:35:31.216Z,23.01
2019-05-30T04:38:00.891Z,23.07
2019-05-30T04:40:30.508Z,22.97
2019-05-30T04:43:00.210Z,22.98
2019-05-30T04:45:29.831Z,23.26
2019-05-30T04:47:59.479Z,23.43
2019-05-30T04:50:29.161Z,23.19
2019-05-30T04:52:58.826Z,23.39
2019-05-30T04:55:28.530Z,23.52
2019-05-30T04:57:58.203Z,23.41
2019-05-30T05:00:28.039Z,22.79
2019-05-30T05:02:57.639Z,23.25
2019-05-30T05:05:27.308Z,23.30
2019-05-30T05:07:56.895Z,23.26
2019-05-30T05:10:26.666Z,23.46
2019-05-30T05:12:56.321Z,23.49
2019-05-30T05:15:25.923Z,23.71
2019-05-30T05:17:55.478Z,23.74
2019-05-30T05:20:25.135Z,23.53
2019-05-30T05:22:54.775Z,23.48
2019-05-30T05:25:24.437Z,23.39
2019-05-30T05:27:54.039Z,23.45
2019-05-30T05:30:24.420Z,23.69
2019-05-30T05:32:54.284Z,23.76
2019-05-30T05:35:24.994Z,23.63
2019-05-30T05:37:54.684Z,23.75
2019-05-30T05:40:24.470Z,23.63
2019-05-30T05:42:54.151Z,23.66
2019-05-30T05:45:24.699Z,23.70
2019-05-30T05:47:54.373Z,23.65
2019-05-30T05:50:24.617Z,23.67
2019-05-30T05:52:54.282Z,23.77
2019-05-30T05:55:26.394Z,23.49
2019-05-30T05:57:55.966Z,23.70
2019-05-30T06:00:25.600Z,23.75
2019-05-30T06:02:55.279Z,23.66
2019-05-30T06:05:24.878Z,23.76
2019-05-30T06:07:54.484Z,23.87
2019-05-30T06:10:24.192Z,24.00
2019-05-30T06:12:53.851Z,24.09
2019-05-30T06:15:23.532Z,23.76
2019-05-30T06:17:53.153Z,23.88
2019-05-30T06:20:23.369Z,23.89
2019-05-30T06:22:53.031Z,23.95
2019-05-30T06:25:25.260Z,23.92
2019-05-30T06:27:53.940Z,24.03
2019-05-30T06:30:24.470Z,24.21
2019-05-30T06:32:54.221Z,24.47
2019-05-30T06:35:25.002Z,24.25
2019-05-30T06:37:54.812Z,24.30
2019-05-30T06:40:25.511Z,24.50
2019-05-30T06:42:55.326Z,24.34
2019-05-30T06:45:25.623Z,24.64
2019-05-30T06:47:56.405Z,24.98
2019-05-30T06:50:26.826Z,24.84
2019-05-30T06:52:56.459Z,24.68
2019-05-30T06:55:27.216Z,24.82
2019-05-30T06:57:57.091Z,24.82
2019-05-30T07:00:28.111Z,24.81
2019-05-30T07:02:57.831Z,24.63
2019-05-30T07:05:29.524Z,24.70
2019-05-30T07:07:58.770Z,25.11
2019-05-30T07:10:28.848Z,25.06
2019-05-30T07:12:58.427Z,25.14
2019-05-30T07:15:29.192Z,25.14
2019-05-30T07:17:58.889Z,25.06
2019-05-30T07:20:29.684Z,25.54
2019-05-30T07:22:59.515Z,25.41
2019-05-30T07:25:29.902Z,25.24
2019-05-30T07:27:59.562Z,25.47
2019-05-30T07:30:30.029Z,25.43
2019-05-30T07:32:59.679Z,25.79
2019-05-30T07:35:30.028Z,25.85
2019-05-30T07:37:59.602Z,25.60
2019-05-30T07:40:29.306Z,25.87
2019-05-30T07:42:58.901Z,25.64
2019-05-30T07:45:28.997Z,25.79
2019-05-30T07:47:59.055Z,25.53
2019-05-30T07:50:28.661Z,25.74
2019-05-30T07:52:58.322Z,25.61
2019-05-30T07:55:28.891Z,25.67
2019-05-30T07:57:58.537Z,25.51
2019-05-30T08:00:29.317Z,25.57
2019-05-30T08:02:58.906Z,25.97
2019-05-30T08:05:28.731Z,26.32
2019-05-30T08:07:58.386Z,26.40
2019-05-30T08:10:28.188Z,26.84
2019-05-30T08:12:57.847Z,26.73
2019-05-30T08:15:27.548Z,26.38
2019-05-30T08:17:57.162Z,26.53
2019-05-30T08:20:27.648Z,26.54
2019-05-30T08:22:57.294Z,26.49
2019-05-30T08:25:27.962Z,26.69
2019-05-30T08:27:57.576Z,27.67
2019-05-30T08:30:28.363Z,27.58
2019-05-30T08:32:57.936Z,27.58
2019-05-30T08:35:39.327Z,27.40
2019-05-30T08:37:58.983Z,27.40
2019-05-30T08:40:29.138Z,27.57
2019-05-30T08:42:58.857Z,27.49
2019-05-30T08:45:29.563Z,27.81
2019-05-30T08:47:59.283Z,27.47
2019-05-30T08:50:30.135Z,27.75
2019-05-30T08:52:59.883Z,27.66
2019-05-30T08:55:30.209Z,28.42
2019-05-30T08:58:00.115Z,28.49
2019-05-30T09:00:29.960Z,28.65
2019-05-30T09:02:59.598Z,28.71
2019-05-30T09:05:29.200Z,28.88
2019-05-30T09:07:58.812Z,28.97
2019-05-30T09:10:28.454Z,28.59
2019-05-30T09:12:58.053Z,28.70
2019-05-30T09:15:27.843Z,29.55
2019-05-30T09:17:57.496Z,29.48
2019-05-30T09:20:27.299Z,29.62
2019-05-30T09:22:56.925Z,29.45
2019-05-30T09:25:26.706Z,29.98
2019-05-30T09:27:56.337Z,29.83
2019-05-30T09:30:26.048Z,29.64
2019-05-30T09:32:55.688Z,29.56
2019-05-30T09:35:25.556Z,30.21
2019-05-30T09:37:55.230Z,30.54
2019-05-30T09:40:26.036Z,30.04
2019-05-30T09:42:55.703Z,30.08
2019-05-30T09:45:26.775Z,29.97
2019-05-30T09:47:56.385Z,30.39
2019-05-30T09:50:26.335Z,30.87
2019-05-30T09:52:55.929Z,30.76
2019-05-30T09:55:26.016Z,30.85
2019-05-30T09:57:55.789Z,31.11
2019-05-30T10:00:26.215Z,31.16
2019-05-30T10:02:55.961Z,30.69
2019-05-30T10:05:25.772Z,31.13
2019-05-30T10:07:55.427Z,30.79
2019-05-30T10:10:26.294Z,31.66
2019-05-30T10:12:56.499Z,31.05
2019-05-30T10:15:26.332Z,30.65
2019-05-30T10:17:56.983Z,30.12
2019-05-30T10:20:26.812Z,29.93
2019-05-30T10:22:57.222Z,30.14
2019-05-30T10:25:27.009Z,29.98
2019-05-30T10:27:57.776Z,30.14
2019-05-30T10:30:27.846Z,30.45
2019-05-30T10:32:57.450Z,30.66
2019-05-30T10:35:30.303Z,30.88
2019-05-30T10:38:00.042Z,30.93
2019-05-30T10:40:32.132Z,31.80
2019-05-30T10:43:01.037Z,32.20
2019-05-30T10:45:30.814Z,31.96
2019-05-30T10:48:00.436Z,32.28
2019-05-30T10:50:30.293Z,31.47
2019-05-30T10:52:59.922Z,31.33
2019-05-30T10:55:29.790Z,31.70
2019-05-30T10:57:59.826Z,31.43
2019-05-30T11:00:52.147Z,31.98
2019-05-30T11:03:24.336Z,31.69
2019-05-30T11:06:24.258Z,31.70
2019-05-30T11:08:56.861Z,32.36
2019-05-30T11:11:26.658Z,31.85
2019-05-30T11:14:01.044Z,31.47
2019-05-30T11:16:30.656Z,31.97
2019-05-30T11:19:00.323Z,32.13
2019-05-30T11:21:29.962Z,31.70
2019-05-30T11:23:59.558Z,32.73
2019-05-30T11:26:29.219Z,32.38
2019-05-30T11:28:58.922Z,32.22
2019-05-30T11:31:28.570Z,32.31
2019-05-30T11:33:59.213Z,32.15
2019-05-30T11:36:28.878Z,32.04
2019-05-30T11:38:59.465Z,32.73
2019-05-30T11:41:29.749Z,32.71
2019-05-30T11:44:00.842Z,33.11
2019-05-30T11:46:30.795Z,32.27
2019-05-30T11:49:00.447Z,33.27
2019-05-30T11:51:34.140Z,32.99
2019-05-30T11:54:03.740Z,32.56
2019-05-30T11:56:33.463Z,32.52
2019-05-30T11:59:03.164Z,32.80
2019-05-30T12:01:32.794Z,32.62
2019-05-30T12:04:02.405Z,32.41
2019-05-30T12:06:32.025Z,32.84
2019-05-30T12:09:01.655Z,32.64
2019-05-30T12:11:31.323Z,32.62
2019-05-30T12:14:01.511Z,33.17
2019-05-30T12:16:31.662Z,32.91
2019-05-30T12:19:01.990Z,32.86
2019-05-30T12:21:31.717Z,32.70
2019-05-30T12:24:02.622Z,32.41
2019-05-30T12:26:33.895Z,32.26
2019-05-30T12:29:03.915Z,32.19
2019-05-30T12:31:33.543Z,32.21
2019-05-30T12:34:03.128Z,32.23
2019-05-30T12:36:32.770Z,32.91
2019-05-30T12:39:02.738Z,32.94
2019-05-30T12:41:32.610Z,32.43
2019-05-30T12:44:03.359Z,32.54
2019-05-30T12:46:33.114Z,32.99
2019-05-30T12:49:03.658Z,32.73
2019-05-30T12:51:33.468Z,32.49
2019-05-30T12:54:03.115Z,32.94
2019-05-30T12:56:32.824Z,32.60
2019-05-30T12:59:03.057Z,32.43
2019-05-30T13:01:32.976Z,32.89
2019-05-30T13:04:03.371Z,32.97
2019-05-30T13:06:33.023Z,33.17
2019-05-30T13:09:03.417Z,33.18
2019-05-30T13:11:33.137Z,33.93
2019-05-30T13:14:02.889Z,33.45
2019-05-30T13:16:32.486Z,32.98
2019-05-30T13:19:02.334Z,32.78
2019-05-30T13:21:32.138Z,33.19
2019-05-30T13:24:02.097Z,33.20
2019-05-30T13:26:31.773Z,33.15
2019-05-30T13:29:02.292Z,33.94
2019-05-30T13:31:32.088Z,33.46
2019-05-30T13:34:02.954Z,33.50
2019-05-30T13:36:32.822Z,33.14
2019-05-30T13:39:03.266Z,33.71
2019-05-30T13:41:32.914Z,34.03
2019-05-30T13:44:05.075Z,33.76
2019-05-30T13:46:34.138Z,32.89
2019-05-30T13:49:04.744Z,32.85
2019-05-30T13:51:34.432Z,32.95
2019-05-30T13:54:05.213Z,32.97
2019-05-30T13:56:35.071Z,32.96
2019-05-30T13:59:05.868Z,33.79
2019-05-30T14:01:35.684Z,32.84
2019-05-30T14:04:06.324Z,32.98
2019-05-30T14:06:36.009Z,33.09
2019-05-30T14:09:06.965Z,32.51
2019-05-30T14:11:36.695Z,32.37
2019-05-30T14:14:06.853Z,32.64
2019-05-30T14:16:36.568Z,33.29
2019-05-30T14:19:10.753Z,33.50
2019-05-30T14:21:37.570Z,32.80
2019-05-30T14:24:07.502Z,32.32
2019-05-30T14:26:37.115Z,33.03
2019-05-30T14:29:07.712Z,32.69
2019-05-30T14:31:37.367Z,32.72
2019-05-30T14:34:08.078Z,33.11
2019-05-30T14:36:37.793Z,33.08
2019-05-30T14:39:09.040Z,33.18
2019-05-30T14:41:38.722Z,32.55
2019-05-30T14:44:08.435Z,32.90
2019-05-30T14:46:38.106Z,33.33
2019-05-30T14:49:08.618Z,33.30
2019-05-30T14:51:38.287Z,32.82
2019-05-30T14:54:08.861Z,32.66
2019-05-30T14:56:38.498Z,32.51
2019-05-30T14:59:08.937Z,32.63
2019-05-30T15:01:38.506Z,32.74
2019-05-30T15:04:09.137Z,33.03
2019-05-30T15:06:38.793Z,33.06
2019-05-30T15:09:17.861Z,32.97
2019-05-30T15:11:40.064Z,32.47
2019-05-30T15:14:10.870Z,32.10
2019-05-30T15:16:40.747Z,32.60
2019-05-30T15:19:10.468Z,32.56
2019-05-30T15:21:40.051Z,32.96
2019-05-30T15:24:09.841Z,32.58
2019-05-30T15:26:39.431Z,32.18
2019-05-30T15:29:10.061Z,32.37
2019-05-30T15:31:39.842Z,32.65
2019-05-30T15:34:10.507Z,32.84
2019-05-30T15:36:40.148Z,32.46
2019-05-30T15:39:10.903Z,32.24
2019-05-30T15:41:40.598Z,32.17
2019-05-30T15:44:11.507Z,32.00
2019-05-30T15:46:41.282Z,31.67
2019-05-30T15:49:12.746Z,32.11
2019-05-30T15:51:42.457Z,31.71
2019-05-30T15:54:12.973Z,31.68
2019-05-30T15:56:42.654Z,31.80
2019-05-30T15:59:13.647Z,31.80
2019-05-30T16:01:43.294Z,32.24
2019-05-30T16:04:14.094Z,32.19
2019-05-30T16:06:43.890Z,32.02
2019-05-30T16:09:14.453Z,32.06
2019-05-30T16:11:44.371Z,32.22
2019-05-30T16:14:15.230Z,31.60
2019-05-30T16:16:45.100Z,31.70
2019-05-30T16:19:20.143Z,31.79
2019-05-30T16:21:46.068Z,31.78
2019-05-30T16:24:16.434Z,31.32
2019-05-30T16:26:46.044Z,31.23
2019-05-30T16:29:15.740Z,31.63
2019-05-30T16:31:45.355Z,31.69
2019-05-30T16:34:16.124Z,31.72
2019-05-30T16:36:45.853Z,31.11
2019-05-30T16:39:16.025Z,30.83
2019-05-30T16:41:45.773Z,30.86
2019-05-30T16:44:16.196Z,30.84
2019-05-30T16:46:45.920Z,31.01
2019-05-30T16:49:16.431Z,30.83
2019-05-30T16:51:46.059Z,30.79
2019-05-30T16:54:15.699Z,30.90
2019-05-30T16:56:45.284Z,30.75
2019-05-30T16:59:15.012Z,30.64
2019-05-30T17:01:44.653Z,30.78
2019-05-30T17:04:14.834Z,30.74
2019-05-30T17:06:44.512Z,30.67
2019-05-30T17:09:15.196Z,30.86
2019-05-30T17:11:44.834Z,30.73
2019-05-30T17:14:15.540Z,30.80
2019-05-30T17:16:45.220Z,30.71
2019-05-30T17:19:16.310Z,30.73
2019-05-30T17:21:46.176Z,30.81
2019-05-30T17:24:16.958Z,30.49
2019-05-30T17:26:46.886Z,30.05
2019-05-30T17:29:17.349Z,29.61
2019-05-30T17:31:47.001Z,29.11
2019-05-30T17:34:17.713Z,28.67
2019-05-30T17:36:47.382Z,27.77
2019-05-30T17:39:18.808Z,27.74
2019-05-30T17:41:48.655Z,27.06
2019-05-30T17:44:19.057Z,26.34
2019-05-30T17:46:48.772Z,25.62
2019-05-30T17:49:19.509Z,24.77
2019-05-30T17:51:50.004Z,24.32
2019-05-30T17:54:19.799Z,24.34
2019-05-30T17:56:49.448Z,24.49
2019-05-30T17:59:20.159Z,24.59
2019-05-30T18:01:49.863Z,24.54
2019-05-30T18:04:20.423Z,24.38
2019-05-30T18:06:50.194Z,24.42
2019-05-30T18:09:20.940Z,24.32
2019-05-30T18:11:52.440Z,24.02
2019-05-30T18:14:22.993Z,24.26
2019-05-30T18:16:52.749Z,24.55
2019-05-30T18:19:23.309Z,24.45
2019-05-30T18:21:53.060Z,24.49
2019-05-30T18:24:23.471Z,24.46
2019-05-30T18:26:53.090Z,24.46
2019-05-30T18:29:23.842Z,24.90
2019-05-30T18:31:53.543Z,24.75
2019-05-30T18:34:24.074Z,24.70
2019-05-30T18:36:53.924Z,24.85
2019-05-30T18:39:24.483Z,24.58
2019-05-30T18:41:54.135Z,25.13
2019-05-30T18:44:25.102Z,24.71
2019-05-30T18:46:55.263Z,24.54
2019-05-30T18:49:25.042Z,24.49
2019-05-30T18:51:54.725Z,24.43
2019-05-30T18:54:24.515Z,24.45
2019-05-30T18:56:54.136Z,24.41
2019-05-30T18:59:24.926Z,24.22
2019-05-30T19:01:54.694Z,24.27
2019-05-30T19:04:25.386Z,23.93
2019-05-30T19:06:55.112Z,23.99
2019-05-30T19:09:24.916Z,23.88
2019-05-30T19:11:54.717Z,23.69
2019-05-30T19:14:27.835Z,23.69
2019-05-30T19:16:55.833Z,23.77
2019-05-30T19:19:25.847Z,24.11
2019-05-30T19:21:55.579Z,24.12
2019-05-30T19:24:26.035Z,24.03
2019-05-30T19:26:55.739Z,23.70
2019-05-30T19:29:26.611Z,23.99
2019-05-30T19:31:56.420Z,23.99
2019-05-30T19:34:26.886Z,24.14
2019-05-30T19:36:56.525Z,24.13
2019-05-30T19:39:27.307Z,24.13
2019-05-30T19:41:57.762Z,24.28
2019-05-30T19:44:41.447Z,24.06
2019-05-30T19:47:10.364Z,23.84
2019-05-30T19:49:39.991Z,23.86
2019-05-30T19:52:09.704Z,23.96
2019-05-30T19:54:39.323Z,24.05
2019-05-30T19:57:08.935Z,24.10
2019-05-30T19:59:39.873Z,24.14
2019-05-30T20:02:09.604Z,24.14
2019-05-30T20:04:40.492Z,24.19
2019-05-30T20:07:10.250Z,24.19
2019-05-30T20:09:40.791Z,24.40
2019-05-30T20:12:10.485Z,24.40
2019-05-30T20:14:41.254Z,24.86
2019-05-30T20:17:11.043Z,24.61
2019-05-30T20:19:41.927Z,24.04
2019-05-30T20:22:11.606Z,23.96
2019-05-30T20:24:41.296Z,23.38
2019-05-30T20:27:11.900Z,23.52
2019-05-30T20:29:45.161Z,23.62
2019-05-30T20:32:12.936Z,23.52
2019-05-30T20:34:43.103Z,23.63
2019-05-30T20:37:12.879Z,23.46
2019-05-30T20:39:42.930Z,23.57
2019-05-30T20:42:19.171Z,23.46
2019-05-30T20:44:44.020Z,23.38
2019-05-30T20:47:13.673Z,23.40
2019-05-30T20:49:43.460Z,23.55
2019-05-30T20:52:13.109Z,23.10
2019-05-30T20:54:43.500Z,23.10
2019-05-30T20:57:13.256Z,22.65
2019-05-30T20:59:42.907Z,22.43
2019-05-30T21:02:12.597Z,22.36
2019-05-30T21:04:42.982Z,22.06
2019-05-30T21:07:13.193Z,22.06
2019-05-30T21:09:44.221Z,22.24
2019-05-30T21:12:16.011Z,22.41
2019-05-30T21:14:47.862Z,22.77
2019-05-30T21:17:17.870Z,22.69
2019-05-30T21:19:47.566Z,22.80
2019-05-30T21:22:17.174Z,22.68
2019-05-30T21:24:47.092Z,22.58
2019-05-30T21:27:16.749Z,22.57
2019-05-30T21:29:47.555Z,22.54
2019-05-30T21:32:17.293Z,22.47
2019-05-30T21:34:48.374Z,22.75
2019-05-30T21:37:18.375Z,22.75
2019-05-30T21:39:48.211Z,22.67
2019-05-30T21:42:17.885Z,22.73
2019-05-30T21:44:51.464Z,22.82
2019-05-30T21:47:18.873Z,22.67
2019-05-30T21:49:49.190Z,22.74
2019-05-30T21:52:19.101Z,22.98
2019-05-30T21:54:50.101Z,23.16
2019-05-30T21:57:19.830Z,23.10
2019-05-30T21:59:50.692Z,22.98
2019-05-30T22:02:20.384Z,22.98
2019-05-30T22:04:50.804Z,22.81
2019-05-30T22:07:20.614Z,22.60
2019-05-30T22:09:51.442Z,22.42
2019-05-30T22:12:21.126Z,22.56
2019-05-30T22:14:51.678Z,22.54
2019-05-30T22:17:21.662Z,22.68
2019-05-30T22:19:52.221Z,22.68
2019-05-30T22:22:21.868Z,22.68
2019-05-30T22:24:52.380Z,22.51
2019-05-30T22:27:22.069Z,22.60
2019-05-30T22:29:52.631Z,22.51
2019-05-30T22:32:22.366Z,22.52
2019-05-30T22:34:53.011Z,22.66
2019-05-30T22:37:22.731Z,22.39
2019-05-30T22:39:53.049Z,22.51
2019-05-30T22:42:22.717Z,22.50
2019-05-30T22:44:52.379Z,22.47
2019-05-30T22:47:21.917Z,22.44
2019-05-30T22:49:52.826Z,22.42
2019-05-30T22:52:22.589Z,22.59
2019-05-30T22:54:53.267Z,22.64
2019-05-30T22:57:22.982Z,22.75
2019-05-30T22:59:53.047Z,22.70
2019-05-30T23:02:22.751Z,22.55
2019-05-30T23:04:52.385Z,22.59
2019-05-30T23:07:21.959Z,22.34
2019-05-30T23:09:51.835Z,22.38
2019-05-30T23:12:21.444Z,22.32
2019-05-30T23:14:52.167Z,22.34
2019-05-30T23:17:21.894Z,22.51
2019-05-30T23:19:52.074Z,22.53
2019-05-30T23:22:22.839Z,22.03
2019-05-30T23:24:53.868Z,22.14
2019-05-30T23:27:23.593Z,22.04
2019-05-30T23:29:53.934Z,22.21
2019-05-30T23:32:23.619Z,21.97
2019-05-30T23:34:54.353Z,21.95
2019-05-30T23:37:24.172Z,22.05
2019-05-30T23:39:54.901Z,21.90
2019-05-30T23:42:24.702Z,21.36
2019-05-30T23:44:55.385Z,21.31
2019-05-30T23:47:25.248Z,21.04
2019-05-30T23:49:55.978Z,21.17
2019-05-30T23:52:25.803Z,21.11
2019-05-30T23:54:56.282Z,21.13
2019-05-30T23:57:25.880Z,20.95
2019-05-30T23:59:56.755Z,20.88
